Time;durP1;ratioP1;P1;durP2;ratioP2;P2;SDS_P1;SDS_P2;PMS_P1;PMS_P2;Temp;Humidity;BMP_temperature;BMP_pressure;BME280_temperature;BME280_humidity;BME280_pressure;Samples;Min_cycle;Max_cycle;Signal;HPM_P1;HPM_P2
2022/08/20 00:02:15;;;;;;;;;;;26.70;48.30;;;;;;6323507;22;19940;-93
2022/08/20 00:04:41;;;;;;;;;;;26.70;48.00;;;;;;6349931;22;19973;-93
2022/08/20 00:07:06;;;;;;;;;;;26.70;47.80;;;;;;6321147;22;19910;-93
2022/08/20 00:09:33;;;;;;;;;;;26.70;47.90;;;;;;6320351;22;19903;-92
2022/08/20 00:12:00;;;;;;;;;;;26.70;48.10;;;;;;6349620;22;20502;-93
2022/08/20 00:14:25;;;;;;;;;;;26.70;48.00;;;;;;6349783;22;19917;-93
2022/08/20 00:16:51;;;;;;;;;;;26.80;47.80;;;;;;6350248;22;19930;-92
2022/08/20 00:19:17;;;;;;;;;;;26.80;47.80;;;;;;6310336;22;19930;-93
2022/08/20 00:21:42;;;;;;;;;;;26.80;47.90;;;;;;6322690;22;19909;-92
2022/08/20 00:24:08;;;;;;;;;;;26.90;48.00;;;;;;6350293;22;20265;-92
2022/08/20 00:26:33;;;;;;;;;;;27.00;48.10;;;;;;6323119;22;19910;-93
2022/08/20 00:28:59;;;;;;;;;;;27.00;48.10;;;;;;6319685;22;19914;-94
2022/08/20 00:31:25;;;;;;;;;;;27.00;47.90;;;;;;6319830;22;19938;-92
2022/08/20 00:33:50;;;;;;;;;;;27.00;48.00;;;;;;6347951;22;19907;-92
2022/08/20 00:36:17;;;;;;;;;;;27.00;47.80;;;;;;6320634;22;19945;-91
2022/08/20 00:38:43;;;;;;;;;;;27.00;47.80;;;;;;6315849;22;20227;-87
2022/08/20 00:41:10;;;;;;;;;;;27.10;47.70;;;;;;6313910;22;19922;-87
2022/08/20 00:43:38;;;;;;;;;;;27.10;47.60;;;;;;6342029;22;19906;-87
2022/08/20 00:46:05;;;;;;;;;;;27.10;47.50;;;;;;6313931;22;20017;-87
2022/08/20 00:48:32;;;;;;;;;;;27.10;47.50;;;;;;6340779;22;19907;-87
2022/08/20 00:51:01;;;;;;;;;;;27.00;47.40;;;;;;6313616;22;20315;-87
2022/08/20 00:53:28;;;;;;;;;;;27.00;47.50;;;;;;6313798;22;19959;-87
2022/08/20 00:55:54;;;;;;;;;;;27.00;47.40;;;;;;6340480;22;19918;-87
2022/08/20 00:58:20;;;;;;;;;;;27.00;47.50;;;;;;6340827;22;19907;-87
2022/08/20 01:00:46;;;;;;;;;;;27.00;47.40;;;;;;6313236;22;19981;-87
2022/08/20 01:03:13;;;;;;;;;;;27.00;47.50;;;;;;6340871;22;19919;-87
2022/08/20 01:05:41;;;;;;;;;;;27.00;47.50;;;;;;6314370;22;19934;-87
2022/08/20 01:08:06;;;;;;;;;;;27.00;47.40;;;;;;6341971;22;19906;-88
2022/08/20 01:10:36;;;;;;;;;;;27.00;47.50;;;;;;6341248;22;19914;-87
2022/08/20 01:13:07;;;;;;;;;;;27.00;47.50;;;;;;6315029;22;20345;-88
2022/08/20 01:15:32;;;;;;;;;;;27.00;47.60;;;;;;6312694;22;19910;-88
2022/08/20 01:17:59;;;;;;;;;;;26.90;47.50;;;;;;6340578;22;19913;-88
2022/08/20 01:20:27;;;;;;;;;;;26.90;47.50;;;;;;6312563;22;19911;-88
2022/08/20 01:23:29;;;;;;;;;;;26.80;47.60;;;;;;6316637;22;19918;-88
2022/08/20 01:25:54;;;;;;;;;;;26.80;47.80;;;;;;6341678;22;19985;-87
2022/08/20 01:28:22;;;;;;;;;;;26.70;47.90;;;;;;6313072;22;19918;-88
2022/08/20 01:30:48;;;;;;;;;;;26.60;47.90;;;;;;6313717;22;19902;-87
2022/08/20 01:33:13;;;;;;;;;;;26.60;48.00;;;;;;6341277;22;19915;-87
2022/08/20 01:35:39;;;;;;;;;;;26.50;48.10;;;;;;6313261;22;20126;-87
2022/08/20 01:38:06;;;;;;;;;;;26.50;48.20;;;;;;6341454;22;19981;-87
2022/08/20 01:40:43;;;;;;;;;;;26.60;48.40;;;;;;6313232;22;20395;-87
2022/08/20 01:43:09;;;;;;;;;;;26.60;48.30;;;;;;6341515;22;19971;-87
2022/08/20 01:45:35;;;;;;;;;;;26.60;48.30;;;;;;6341428;22;19902;-87
2022/08/20 01:48:01;;;;;;;;;;;26.60;48.20;;;;;;6315039;22;19917;-86
2022/08/20 01:50:27;;;;;;;;;;;26.60;48.30;;;;;;6315812;22;19902;-87
2022/08/20 01:53:07;;;;;;;;;;;26.70;48.20;;;;;;6314829;22;20227;-87
2022/08/20 01:55:33;;;;;;;;;;;26.70;48.20;;;;;;6342234;22;19907;-87
2022/08/20 01:57:59;;;;;;;;;;;26.70;48.40;;;;;;6343184;22;19918;-87
2022/08/20 02:00:24;;;;;;;;;;;26.70;48.50;;;;;;6343333;22;19976;-88
2022/08/20 02:02:50;;;;;;;;;;;26.80;48.50;;;;;;6342305;22;19914;-88
2022/08/20 02:05:16;;;;;;;;;;;26.80;48.40;;;;;;6313724;22;19903;-87
2022/08/20 02:07:42;;;;;;;;;;;26.80;48.30;;;;;;6312650;22;19982;-87
2022/08/20 02:10:09;;;;;;;;;;;26.80;48.30;;;;;;6340630;22;19903;-87
2022/08/20 02:12:35;;;;;;;;;;;26.90;48.30;;;;;;6340609;22;19910;-87
2022/08/20 02:15:01;;;;;;;;;;;26.90;48.20;;;;;;6340665;22;19951;-88
2022/08/20 02:17:27;;;;;;;;;;;26.90;48.20;;;;;;6314573;22;20291;-88
2022/08/20 02:20:18;;;;;;;;;;;26.90;48.20;;;;;;6341612;22;19982;-87
2022/08/20 02:22:49;;;;;;;;;;;27.00;48.10;;;;;;6307877;22;19911;-88
2022/08/20 02:25:15;;;;;;;;;;;27.00;48.10;;;;;;6345332;22;19903;-87
2022/08/20 02:27:41;;;;;;;;;;;27.00;48.10;;;;;;6315418;22;19915;-88
2022/08/20 02:30:09;;;;;;;;;;;27.10;48.00;;;;;;6343073;22;20343;-86
2022/08/20 02:32:36;;;;;;;;;;;27.00;48.00;;;;;;6316860;22;20322;-88
2022/08/20 02:35:04;;;;;;;;;;;27.10;48.00;;;;;;6313608;22;20001;-87
2022/08/20 02:37:30;;;;;;;;;;;27.10;48.00;;;;;;6341780;22;19907;-88
2022/08/20 02:39:55;;;;;;;;;;;27.10;48.20;;;;;;6313512;22;19917;-87
2022/08/20 02:42:21;;;;;;;;;;;27.10;48.10;;;;;;6342099;22;19903;-87
2022/08/20 02:44:46;;;;;;;;;;;27.10;48.20;;;;;;6313682;22;19960;-87
2022/08/20 02:47:12;;;;;;;;;;;27.00;48.40;;;;;;6341801;22;19902;-87
2022/08/20 02:49:37;;;;;;;;;;;27.00;48.40;;;;;;6341529;22;19910;-86
2022/08/20 02:52:03;;;;;;;;;;;27.00;48.40;;;;;;6342029;22;19903;-86
2022/08/20 02:54:28;;;;;;;;;;;27.00;48.30;;;;;;6341134;22;20220;-87
2022/08/20 02:56:54;;;;;;;;;;;27.00;48.40;;;;;;6313949;22;19902;-86
2022/08/20 02:59:19;;;;;;;;;;;27.00;48.50;;;;;;6341808;22;19918;-87
2022/08/20 03:01:45;;;;;;;;;;;26.90;48.40;;;;;;6341493;22;20299;-87
2022/08/20 03:04:10;;;;;;;;;;;26.90;48.50;;;;;;6342213;22;19903;-87
2022/08/20 03:06:36;;;;;;;;;;;26.90;48.40;;;;;;6313592;22;19903;-88
2022/08/20 03:09:04;;;;;;;;;;;26.90;48.70;;;;;;6341937;22;19902;-87
2022/08/20 03:11:31;;;;;;;;;;;26.70;49.10;;;;;;6314471;22;20227;-87
2022/08/20 03:13:56;;;;;;;;;;;26.50;49.70;;;;;;6314275;22;20204;-87
2022/08/20 03:16:22;;;;;;;;;;;26.40;50.00;;;;;;6341151;22;19910;-87
2022/08/20 03:18:47;;;;;;;;;;;26.20;50.40;;;;;;6313955;22;19911;-87
2022/08/20 03:21:13;;;;;;;;;;;26.20;50.70;;;;;;6313671;22;19999;-86
2022/08/20 03:23:39;;;;;;;;;;;26.00;51.10;;;;;;6313765;22;19909;-86
2022/08/20 03:26:05;;;;;;;;;;;26.00;51.30;;;;;;6340897;22;19915;-87
2022/08/20 03:28:31;;;;;;;;;;;25.90;51.70;;;;;;6342079;22;19902;-86
2022/08/20 03:30:58;;;;;;;;;;;25.80;52.00;;;;;;6342504;22;19946;-87
2022/08/20 03:33:24;;;;;;;;;;;25.80;52.30;;;;;;6313577;22;19951;-87
2022/08/20 03:35:50;;;;;;;;;;;25.80;52.60;;;;;;6314256;22;20323;-87
2022/08/20 03:38:16;;;;;;;;;;;25.80;52.90;;;;;;6314541;22;19917;-87
2022/08/20 03:40:42;;;;;;;;;;;25.80;53.00;;;;;;6341591;22;20376;-87
2022/08/20 03:43:07;;;;;;;;;;;25.80;53.20;;;;;;6314543;22;19910;-87
2022/08/20 03:45:34;;;;;;;;;;;25.80;53.40;;;;;;6314423;22;20223;-87
2022/08/20 03:48:00;;;;;;;;;;;25.80;53.70;;;;;;6314468;22;20287;-87
2022/08/20 03:50:27;;;;;;;;;;;25.80;53.80;;;;;;6341813;22;19934;-87
2022/08/20 03:52:53;;;;;;;;;;;25.80;53.80;;;;;;6314645;22;20325;-87
2022/08/20 03:55:19;;;;;;;;;;;25.70;53.80;;;;;;6314306;22;19938;-87
2022/08/20 03:57:53;;;;;;;;;;;25.70;54.00;;;;;;6341744;22;19914;-86
2022/08/20 04:00:20;;;;;;;;;;;25.70;54.40;;;;;;6313083;22;19907;-87
2022/08/20 04:02:46;;;;;;;;;;;25.50;54.90;;;;;;6314935;22;19993;-88
2022/08/20 04:05:12;;;;;;;;;;;25.40;56.20;;;;;;6342353;22;20372;-87
2022/08/20 04:07:39;;;;;;;;;;;25.30;57.40;;;;;;6314855;22;19906;-88
2022/08/20 04:10:06;;;;;;;;;;;25.30;58.40;;;;;;6344253;22;19907;-88
2022/08/20 04:12:31;;;;;;;;;;;25.20;59.40;;;;;;6343901;22;20430;-87
2022/08/20 04:14:57;;;;;;;;;;;25.20;60.30;;;;;;6315803;22;19911;-87
2022/08/20 04:17:23;;;;;;;;;;;25.10;61.00;;;;;;6314590;22;20320;-87
2022/08/20 04:19:48;;;;;;;;;;;25.10;61.50;;;;;;6314431;22;19921;-86
2022/08/20 04:22:14;;;;;;;;;;;25.00;62.10;;;;;;6314300;22;20274;-87
2022/08/20 04:24:40;;;;;;;;;;;24.90;62.50;;;;;;6342261;22;19907;-87
2022/08/20 04:27:07;;;;;;;;;;;24.90;62.70;;;;;;6342470;22;19918;-87
2022/08/20 04:29:33;;;;;;;;;;;24.90;63.00;;;;;;6316106;22;20323;-89
2022/08/20 04:31:59;;;;;;;;;;;24.90;63.30;;;;;;6291474;22;19911;-90
2022/08/20 04:34:25;;;;;;;;;;;24.80;63.60;;;;;;6314775;22;19906;-89
2022/08/20 04:36:50;;;;;;;;;;;24.80;63.90;;;;;;6316895;22;19911;-89
2022/08/20 04:39:16;;;;;;;;;;;24.80;64.10;;;;;;6317026;22;19909;-89
2022/08/20 04:41:42;;;;;;;;;;;24.80;64.20;;;;;;6342971;22;19910;-88
2022/08/20 04:44:08;;;;;;;;;;;24.80;64.40;;;;;;6343878;22;20248;-88
2022/08/20 04:46:33;;;;;;;;;;;24.80;64.60;;;;;;6313735;22;19942;-88
2022/08/20 04:49:02;;;;;;;;;;;24.90;64.70;;;;;;6341592;22;19902;-88
2022/08/20 04:51:28;;;;;;;;;;;24.90;64.80;;;;;;6342528;22;20285;-88
2022/08/20 04:53:55;;;;;;;;;;;24.90;64.90;;;;;;6343248;22;19934;-88
2022/08/20 04:56:30;;;;;;;;;;;25.00;65.10;;;;;;6314658;22;19914;-88
2022/08/20 04:58:57;;;;;;;;;;;25.00;65.20;;;;;;6314115;22;19903;-88
2022/08/20 05:01:23;;;;;;;;;;;25.00;65.30;;;;;;6314488;22;19910;-88
2022/08/20 05:03:49;;;;;;;;;;;25.00;65.40;;;;;;6342955;22;19903;-89
2022/08/20 05:06:16;;;;;;;;;;;25.00;65.40;;;;;;6314896;22;19917;-89
2022/08/20 05:08:41;;;;;;;;;;;25.00;65.50;;;;;;6316243;22;19902;-88
2022/08/20 05:11:08;;;;;;;;;;;25.00;65.60;;;;;;6315191;22;19902;-89
2022/08/20 05:13:33;;;;;;;;;;;25.00;65.70;;;;;;6314685;22;19903;-87
2022/08/20 05:16:03;;;;;;;;;;;25.00;65.70;;;;;;6313261;22;20435;-88
2022/08/20 05:18:31;;;;;;;;;;;25.00;65.70;;;;;;6314566;22;19913;-88
2022/08/20 05:21:04;;;;;;;;;;;25.00;65.90;;;;;;6314121;22;19909;-88
2022/08/20 05:23:29;;;;;;;;;;;25.10;65.90;;;;;;6342186;22;19902;-88
2022/08/20 05:25:55;;;;;;;;;;;25.10;66.00;;;;;;6341971;22;19910;-88
2022/08/20 05:28:25;;;;;;;;;;;25.10;66.10;;;;;;6343476;22;19902;-88
2022/08/20 05:30:52;;;;;;;;;;;25.20;66.20;;;;;;6315983;22;19903;-88
2022/08/20 05:33:19;;;;;;;;;;;25.20;66.30;;;;;;6315156;22;20002;-87
2022/08/20 05:35:45;;;;;;;;;;;25.20;66.30;;;;;;6341868;22;20341;-88
2022/08/20 05:38:12;;;;;;;;;;;25.20;66.30;;;;;;6314168;22;19915;-87
2022/08/20 05:40:39;;;;;;;;;;;25.30;66.30;;;;;;6314188;22;20311;-87
2022/08/20 05:43:04;;;;;;;;;;;25.30;66.40;;;;;;6313900;22;19911;-87
2022/08/20 05:45:30;;;;;;;;;;;25.30;66.60;;;;;;6314398;22;19929;-87
2022/08/20 05:47:57;;;;;;;;;;;25.40;66.60;;;;;;6314111;22;19933;-87
2022/08/20 05:50:23;;;;;;;;;;;25.50;66.70;;;;;;6341445;22;19955;-87
2022/08/20 05:52:48;;;;;;;;;;;25.60;66.60;;;;;;6314024;22;19948;-87
2022/08/20 05:55:14;;;;;;;;;;;25.70;66.70;;;;;;6342050;22;19914;-88
2022/08/20 05:57:39;;;;;;;;;;;25.80;66.70;;;;;;6314698;22;19914;-87
2022/08/20 06:00:07;;;;;;;;;;;25.80;66.60;;;;;;6314893;22;19909;-87
2022/08/20 06:05:18;;;;;;;;;;;26.00;66.40;;;;;;6342004;22;20346;-87
2022/08/20 06:07:44;;;;;;;;;;;26.00;66.30;;;;;;6341628;22;20240;-87
2022/08/20 06:10:10;;;;;;;;;;;26.10;66.30;;;;;;6313929;22;19968;-88
2022/08/20 06:12:36;;;;;;;;;;;26.20;66.40;;;;;;6314413;22;20227;-87
2022/08/20 06:15:02;;;;;;;;;;;26.30;66.50;;;;;;6340321;22;19917;-87
2022/08/20 06:17:28;;;;;;;;;;;26.40;66.60;;;;;;6313093;22;19960;-87
2022/08/20 06:19:54;;;;;;;;;;;26.50;66.40;;;;;;6340868;22;19918;-87
2022/08/20 06:22:19;;;;;;;;;;;26.50;66.20;;;;;;6313353;22;19918;-87
2022/08/20 06:24:45;;;;;;;;;;;26.60;66.00;;;;;;6312313;22;19910;-87
2022/08/20 06:27:13;;;;;;;;;;;26.60;65.80;;;;;;6339888;22;19914;-87
2022/08/20 06:29:38;;;;;;;;;;;26.60;65.90;;;;;;6339720;22;19912;-87
2022/08/20 06:32:04;;;;;;;;;;;26.70;66.00;;;;;;6338389;22;19934;-87
2022/08/20 06:34:30;;;;;;;;;;;26.70;66.10;;;;;;6311580;22;20321;-87
2022/08/20 06:36:56;;;;;;;;;;;26.80;66.00;;;;;;6312124;22;20081;-87
2022/08/20 06:39:22;;;;;;;;;;;26.90;66.20;;;;;;6340182;22;19909;-87
2022/08/20 06:41:48;;;;;;;;;;;27.00;66.30;;;;;;6339949;22;19938;-87
2022/08/20 06:44:14;;;;;;;;;;;27.20;66.40;;;;;;6340185;22;20342;-86
2022/08/20 06:46:39;;;;;;;;;;;27.20;66.20;;;;;;6312495;22;20235;-88
2022/08/20 06:49:05;;;;;;;;;;;27.30;66.10;;;;;;6313213;22;19952;-86
2022/08/20 06:51:31;;;;;;;;;;;27.30;65.90;;;;;;6314010;22;19910;-86
2022/08/20 06:53:57;;;;;;;;;;;27.30;65.80;;;;;;6313807;22;19949;-88
2022/08/20 06:56:26;;;;;;;;;;;27.30;65.50;;;;;;6312694;22;19915;-87
2022/08/20 06:58:57;;;;;;;;;;;27.30;65.50;;;;;;6313275;22;19907;-87
2022/08/20 07:01:23;;;;;;;;;;;27.30;65.50;;;;;;6310640;22;19936;-86
2022/08/20 07:03:51;;;;;;;;;;;27.30;65.10;;;;;;6314216;22;19902;-86
2022/08/20 07:06:17;;;;;;;;;;;27.30;64.90;;;;;;6341578;22;19910;-87
2022/08/20 07:08:42;;;;;;;;;;;27.20;64.90;;;;;;6341926;22;20184;-86
2022/08/20 07:11:08;;;;;;;;;;;27.20;64.90;;;;;;6314848;22;19902;-86
2022/08/20 07:13:39;;;;;;;;;;;27.10;64.70;;;;;;6342334;22;19903;-87
2022/08/20 07:16:05;;;;;;;;;;;27.10;64.80;;;;;;6314492;22;19894;-85
2022/08/20 07:18:30;;;;;;;;;;;27.10;65.10;;;;;;6313105;22;20339;-87
2022/08/20 07:20:56;;;;;;;;;;;27.20;65.40;;;;;;6340854;22;19910;-87
2022/08/20 07:23:22;;;;;;;;;;;27.20;65.60;;;;;;6312142;22;19988;-87
2022/08/20 07:25:48;;;;;;;;;;;27.30;65.40;;;;;;6312599;22;19952;-87
2022/08/20 07:28:15;;;;;;;;;;;27.30;65.20;;;;;;6341871;22;19938;-87
2022/08/20 07:33:27;;;;;;;;;;;27.30;66.00;;;;;;6340546;22;19917;-87
2022/08/20 07:35:53;;;;;;;;;;;27.80;69.10;;;;;;6312201;22;19933;-86
2022/08/20 07:38:25;;;;;;;;;;;28.60;70.20;;;;;;6313508;22;19910;-87
2022/08/20 07:40:52;;;;;;;;;;;29.30;69.90;;;;;;6312378;22;19902;-86
2022/08/20 07:43:17;;;;;;;;;;;30.00;68.90;;;;;;6340641;22;19917;-86
2022/08/20 07:45:43;;;;;;;;;;;30.50;67.40;;;;;;6342910;22;19934;-86
2022/08/20 07:48:10;;;;;;;;;;;30.80;66.20;;;;;;6342973;22;19911;-87
2022/08/20 07:50:36;;;;;;;;;;;31.20;66.00;;;;;;6342447;22;19902;-87
2022/08/20 07:53:02;;;;;;;;;;;31.50;66.70;;;;;;6313757;22;20013;-84
2022/08/20 07:55:29;;;;;;;;;;;31.90;64.60;;;;;;6340826;22;19907;-87
2022/08/20 07:57:56;;;;;;;;;;;32.10;64.10;;;;;;6313696;22;19964;-86
2022/08/20 08:00:22;;;;;;;;;;;32.30;64.30;;;;;;6314100;22;19903;-86
2022/08/20 08:02:48;;;;;;;;;;;32.80;65.50;;;;;;6342452;22;19959;-87
2022/08/20 08:05:14;;;;;;;;;;;33.50;65.70;;;;;;6314305;22;20321;-86
2022/08/20 08:07:41;;;;;;;;;;;34.00;64.30;;;;;;6342443;22;19946;-85
2022/08/20 08:10:08;;;;;;;;;;;34.20;63.50;;;;;;6341776;22;19959;-85
2022/08/20 08:12:37;;;;;;;;;;;34.50;64.40;;;;;;6313909;22;19910;-85
2022/08/20 08:15:03;;;;;;;;;;;34.70;61.10;;;;;;6341068;22;19992;-85
2022/08/20 08:17:30;;;;;;;;;;;34.70;61.30;;;;;;6342426;22;19915;-86
2022/08/20 08:19:56;;;;;;;;;;;34.90;61.70;;;;;;6316036;22;20315;-85
2022/08/20 08:22:22;;;;;;;;;;;35.40;63.50;;;;;;6319042;22;20196;-85
2022/08/20 08:24:47;;;;;;;;;;;36.10;63.30;;;;;;6324056;22;19985;-86
2022/08/20 08:27:13;;;;;;;;;;;36.90;64.10;;;;;;6348165;22;19913;-86
2022/08/20 08:29:39;;;;;;;;;;;37.80;60.30;;;;;;6351337;22;20177;-86
2022/08/20 08:32:05;;;;;;;;;;;38.40;55.20;;;;;;6347426;22;19960;-86
2022/08/20 08:34:31;;;;;;;;;;;38.80;52.40;;;;;;6319146;22;19945;-86
2022/08/20 08:36:57;;;;;;;;;;;38.90;50.60;;;;;;6345480;22;19910;-86
2022/08/20 08:39:23;;;;;;;;;;;38.70;50.00;;;;;;6318670;22;19911;-85
2022/08/20 08:41:49;;;;;;;;;;;38.40;49.20;;;;;;6346203;22;19910;-86
2022/08/20 08:44:22;;;;;;;;;;;38.00;47.20;;;;;;6345548;22;19911;-85
2022/08/20 08:46:55;;;;;;;;;;;37.50;45.40;;;;;;6319346;22;19903;-86
2022/08/20 08:49:23;;;;;;;;;;;37.00;44.30;;;;;;6347367;22;19915;-87
2022/08/20 08:51:58;;;;;;;;;;;36.60;45.80;;;;;;6344708;22;19952;-86
2022/08/20 08:54:25;;;;;;;;;;;36.30;45.00;;;;;;6316459;22;19918;-86
2022/08/20 08:56:51;;;;;;;;;;;36.00;44.10;;;;;;6344440;22;19903;-86
2022/08/20 08:59:17;;;;;;;;;;;35.80;45.30;;;;;;6345619;22;19961;-86
2022/08/20 09:01:45;;;;;;;;;;;35.60;45.00;;;;;;6345030;22;19938;-86
2022/08/20 09:04:15;;;;;;;;;;;35.40;44.70;;;;;;6345380;22;20227;-85
2022/08/20 09:06:42;;;;;;;;;;;35.30;45.50;;;;;;6345709;22;19907;-85
2022/08/20 09:09:13;;;;;;;;;;;35.30;44.80;;;;;;6345709;22;19910;-87
2022/08/20 09:11:55;;;;;;;;;;;35.30;44.70;;;;;;6318408;22;19949;-86
2022/08/20 09:14:23;;;;;;;;;;;35.10;43.70;;;;;;6318641;22;19914;-85
2022/08/20 09:16:49;;;;;;;;;;;35.00;43.00;;;;;;6346456;22;19902;-86
2022/08/20 09:19:15;;;;;;;;;;;34.90;43.40;;;;;;6345524;22;19964;-86
2022/08/20 09:21:40;;;;;;;;;;;34.90;44.10;;;;;;6346117;22;19909;-86
2022/08/20 09:24:06;;;;;;;;;;;35.00;44.40;;;;;;6347726;22;19994;-85
2022/08/20 09:26:31;;;;;;;;;;;35.20;44.60;;;;;;6351370;22;19903;-88
2022/08/20 09:28:57;;;;;;;;;;;35.80;43.40;;;;;;6354211;22;19910;-85
2022/08/20 09:31:23;;;;;;;;;;;36.50;42.60;;;;;;6327768;22;20239;-85
2022/08/20 09:33:50;;;;;;;;;;;36.90;41.40;;;;;;6323848;22;19911;-86
2022/08/20 09:36:15;;;;;;;;;;;37.30;41.20;;;;;;6352588;22;19999;-85
2022/08/20 09:38:41;;;;;;;;;;;37.50;40.40;;;;;;6353544;22;19911;-86
2022/08/20 09:41:06;;;;;;;;;;;37.70;40.10;;;;;;6350435;22;19902;-84
2022/08/20 09:43:32;;;;;;;;;;;37.80;39.70;;;;;;6354157;22;19911;-87
2022/08/20 09:45:58;;;;;;;;;;;37.90;38.90;;;;;;6350765;22;19909;-86
2022/08/20 09:48:23;;;;;;;;;;;38.10;37.70;;;;;;6340275;22;19960;-87
2022/08/20 09:50:49;;;;;;;;;;;38.20;37.10;;;;;;6339548;22;19907;-86
2022/08/20 09:53:15;;;;;;;;;;;38.70;36.80;;;;;;6311709;22;20018;-91
2022/08/20 09:55:47;;;;;;;;;;;39.30;36.40;;;;;;6315472;22;19993;-90
2022/08/20 09:58:12;;;;;;;;;;;39.90;34.60;;;;;;6341657;22;19907;-91
2022/08/20 10:00:39;;;;;;;;;;;40.20;34.40;;;;;;6315356;22;19910;-92
2022/08/20 10:03:05;;;;;;;;;;;40.80;34.50;;;;;;6314878;22;19903;-91
2022/08/20 10:05:31;;;;;;;;;;;41.40;33.40;;;;;;6343936;22;19911;-91
2022/08/20 10:07:57;;;;;;;;;;;41.80;31.50;;;;;;6345252;22;19917;-91
2022/08/20 10:10:22;;;;;;;;;;;41.40;29.10;;;;;;6317686;22;19911;-90
2022/08/20 10:12:48;;;;;;;;;;;40.70;28.60;;;;;;6316465;22;19903;-90
2022/08/20 10:15:13;;;;;;;;;;;39.80;29.90;;;;;;6316535;22;19919;-91
2022/08/20 10:17:40;;;;;;;;;;;39.00;30.50;;;;;;6316431;22;19913;-90
2022/08/20 10:20:07;;;;;;;;;;;38.20;31.60;;;;;;6343788;22;19935;-91
2022/08/20 10:22:32;;;;;;;;;;;37.50;32.70;;;;;;6317412;22;19902;-91
2022/08/20 10:24:58;;;;;;;;;;;37.10;33.60;;;;;;6344520;22;19925;-92
2022/08/20 10:27:23;;;;;;;;;;;36.70;33.90;;;;;;6315956;22;19910;-91
2022/08/20 10:29:49;;;;;;;;;;;36.20;34.40;;;;;;6344088;22;19967;-91
2022/08/20 10:32:15;;;;;;;;;;;35.80;35.00;;;;;;6316633;22;19902;-91
2022/08/20 10:34:42;;;;;;;;;;;35.70;35.30;;;;;;6316882;22;20009;-91
2022/08/20 10:37:08;;;;;;;;;;;35.50;35.30;;;;;;6319035;22;19911;-91
2022/08/20 10:39:34;;;;;;;;;;;35.50;34.90;;;;;;6317979;22;19963;-91
2022/08/20 10:41:59;;;;;;;;;;;35.20;34.80;;;;;;6319858;22;20352;-92
2022/08/20 10:44:25;;;;;;;;;;;35.00;35.00;;;;;;6318401;22;19915;-93
2022/08/20 10:46:50;;;;;;;;;;;34.70;35.10;;;;;;6319059;22;19907;-91
2022/08/20 10:49:16;;;;;;;;;;;34.40;35.60;;;;;;6316840;22;19915;-91
2022/08/20 10:51:41;;;;;;;;;;;34.30;36.10;;;;;;6290776;22;19914;-92
2022/08/20 10:54:10;;;;;;;;;;;34.30;36.40;;;;;;6345292;22;19914;-92
2022/08/20 10:56:35;;;;;;;;;;;34.20;36.40;;;;;;6317288;22;19921;-93
2022/08/20 10:59:01;;;;;;;;;;;34.10;36.80;;;;;;6316697;22;19985;-91
2022/08/20 11:01:26;;;;;;;;;;;34.00;37.00;;;;;;6346529;22;19976;-91
2022/08/20 11:03:51;;;;;;;;;;;34.00;37.10;;;;;;6345066;22;19891;-92
2022/08/20 11:06:21;;;;;;;;;;;34.00;37.30;;;;;;6316482;22;20004;-92
2022/08/20 11:08:46;;;;;;;;;;;33.90;37.40;;;;;;6314674;22;19906;-92
2022/08/20 11:11:11;;;;;;;;;;;33.80;36.90;;;;;;6315541;22;19933;-91
2022/08/20 11:13:38;;;;;;;;;;;33.50;36.60;;;;;;6315587;22;19918;-92
2022/08/20 11:16:07;;;;;;;;;;;33.30;37.10;;;;;;6341559;22;19922;-91
2022/08/20 11:18:32;;;;;;;;;;;33.00;39.20;;;;;;6343807;22;19937;-91
2022/08/20 11:20:58;;;;;;;;;;;32.50;40.10;;;;;;6318012;22;19914;-91
2022/08/20 11:23:23;;;;;;;;;;;32.30;40.90;;;;;;6318862;22;19915;-91
2022/08/20 11:25:49;;;;;;;;;;;32.10;41.40;;;;;;6346310;22;19981;-90
2022/08/20 11:28:15;;;;;;;;;;;32.00;41.40;;;;;;6319656;22;20237;-91
2022/08/20 11:30:41;;;;;;;;;;;32.30;41.60;;;;;;6319796;22;20001;-91
2022/08/20 11:33:09;;;;;;;;;;;32.80;40.90;;;;;;6318471;22;19914;-92
2022/08/20 11:35:35;;;;;;;;;;;33.50;39.40;;;;;;6319610;22;20307;-91
2022/08/20 11:38:01;;;;;;;;;;;34.30;38.30;;;;;;6320069;22;19958;-92
2022/08/20 11:40:27;;;;;;;;;;;35.00;37.60;;;;;;6319891;22;19907;-90
2022/08/20 11:42:53;;;;;;;;;;;35.30;36.20;;;;;;6344389;22;19917;-90
2022/08/20 11:45:19;;;;;;;;;;;35.70;35.90;;;;;;6318241;22;20017;-91
2022/08/20 11:47:47;;;;;;;;;;;36.10;35.90;;;;;;6316942;22;19979;-92
2022/08/20 11:50:17;;;;;;;;;;;36.70;34.50;;;;;;6344426;22;19903;-89
2022/08/20 11:52:43;;;;;;;;;;;37.40;32.80;;;;;;6340858;22;19914;-92
2022/08/20 11:55:10;;;;;;;;;;;37.80;31.40;;;;;;6314165;22;19910;-91
2022/08/20 11:57:36;;;;;;;;;;;37.70;31.00;;;;;;6317665;22;19938;-92
2022/08/20 12:00:06;;;;;;;;;;;37.30;30.60;;;;;;6317479;22;19902;-91
2022/08/20 12:02:31;;;;;;;;;;;37.50;31.20;;;;;;6315386;22;19921;-91
2022/08/20 12:04:57;;;;;;;;;;;37.80;31.00;;;;;;6316586;22;19981;-90
2022/08/20 12:07:23;;;;;;;;;;;37.60;31.00;;;;;;6315482;22;20036;-89
2022/08/20 12:09:49;;;;;;;;;;;37.80;31.50;;;;;;6343819;22;19906;-89
2022/08/20 12:12:14;;;;;;;;;;;38.60;30.60;;;;;;6344154;22;19918;-89
2022/08/20 12:14:40;;;;;;;;;;;39.50;30.10;;;;;;6340451;22;19919;-88
2022/08/20 12:17:11;;;;;;;;;;;40.20;28.30;;;;;;6314737;22;19902;-89
2022/08/20 12:19:37;;;;;;;;;;;40.80;27.40;;;;;;6316117;22;20223;-89
2022/08/20 12:22:03;;;;;;;;;;;40.80;27.20;;;;;;6318001;22;19907;-90
2022/08/20 12:24:28;;;;;;;;;;;40.70;27.40;;;;;;6318275;22;19993;-90
2022/08/20 12:26:54;;;;;;;;;;;40.80;27.60;;;;;;6345863;22;19903;-91
2022/08/20 12:29:19;;;;;;;;;;;40.80;26.30;;;;;;6316716;22;19906;-90
2022/08/20 12:31:46;;;;;;;;;;;40.40;26.30;;;;;;6347796;22;20365;-93
2022/08/20 12:34:12;;;;;;;;;;;39.60;26.40;;;;;;6345194;22;20314;-93
2022/08/20 12:36:38;;;;;;;;;;;39.20;26.90;;;;;;6321549;22;19918;-93
2022/08/20 12:39:03;;;;;;;;;;;39.10;27.30;;;;;;6323592;22;19945;-92
2022/08/20 12:41:29;;;;;;;;;;;39.20;26.70;;;;;;6321688;22;19938;-92
2022/08/20 12:43:55;;;;;;;;;;;38.80;26.90;;;;;;6319082;22;19916;-92
2022/08/20 12:46:20;;;;;;;;;;;39.00;26.80;;;;;;6347396;22;19980;-91
2022/08/20 12:48:53;;;;;;;;;;;38.90;26.60;;;;;;6346555;22;20264;-91
2022/08/20 12:51:18;;;;;;;;;;;39.20;26.10;;;;;;6317624;22;20339;-90
2022/08/20 12:53:44;;;;;;;;;;;39.70;26.00;;;;;;6317783;22;19934;-91
2022/08/20 12:56:09;;;;;;;;;;;40.10;25.70;;;;;;6318934;22;19919;-91
2022/08/20 12:58:35;;;;;;;;;;;40.50;25.30;;;;;;6346521;22;19910;-93
2022/08/20 13:01:00;;;;;;;;;;;40.70;24.60;;;;;;6319540;22;19964;-92
2022/08/20 13:03:26;;;;;;;;;;;40.50;24.60;;;;;;6346883;22;19915;-90
2022/08/20 13:05:51;;;;;;;;;;;40.30;25.00;;;;;;6346467;22;19961;-92
2022/08/20 13:08:18;;;;;;;;;;;39.90;24.90;;;;;;6345360;22;19911;-90
2022/08/20 13:10:44;;;;;;;;;;;39.20;25.40;;;;;;6320497;22;19906;-92
2022/08/20 13:13:14;;;;;;;;;;;38.50;26.10;;;;;;6318574;22;19918;-91
2022/08/20 13:15:39;;;;;;;;;;;38.30;26.30;;;;;;6318539;22;19923;-90
2022/08/20 13:18:05;;;;;;;;;;;38.20;26.60;;;;;;6350712;22;19909;-92
2022/08/20 13:20:31;;;;;;;;;;;38.20;26.80;;;;;;6319914;22;19942;-90
2022/08/20 13:22:56;;;;;;;;;;;38.30;26.50;;;;;;6320840;22;20214;-91
2022/08/20 13:25:23;;;;;;;;;;;38.30;26.30;;;;;;6322672;22;19915;-91
2022/08/20 13:27:56;;;;;;;;;;;38.00;26.30;;;;;;6353632;22;19906;-93
2022/08/20 13:30:22;;;;;;;;;;;37.70;26.70;;;;;;6320319;22;19945;-91
2022/08/20 13:32:48;;;;;;;;;;;37.70;26.90;;;;;;6347112;22;19907;-92
2022/08/20 13:35:13;;;;;;;;;;;37.80;26.90;;;;;;6322587;22;20300;-92
2022/08/20 13:37:40;;;;;;;;;;;37.70;26.00;;;;;;6321789;22;19906;-92
2022/08/20 13:40:07;;;;;;;;;;;37.50;26.00;;;;;;6320746;22;19950;-91
2022/08/20 13:42:33;;;;;;;;;;;37.30;25.90;;;;;;6317748;22;20239;-90
2022/08/20 13:44:59;;;;;;;;;;;37.10;26.20;;;;;;6345922;22;20345;-90
2022/08/20 13:47:29;;;;;;;;;;;36.80;26.50;;;;;;6317745;22;19989;-90
2022/08/20 13:49:56;;;;;;;;;;;36.50;26.70;;;;;;6316463;22;20017;-90
2022/08/20 13:52:21;;;;;;;;;;;36.20;26.90;;;;;;6317291;22;19971;-90
2022/08/20 13:54:47;;;;;;;;;;;35.90;27.10;;;;;;6330264;22;19902;-92
2022/08/20 13:57:15;;;;;;;;;;;35.80;27.50;;;;;;6326720;22;19907;-92
2022/08/20 13:59:42;;;;;;;;;;;35.70;27.70;;;;;;6322599;22;20673;-93
2022/08/20 14:02:08;;;;;;;;;;;35.60;27.60;;;;;;6319940;22;20223;-93
2022/08/20 14:04:34;;;;;;;;;;;35.60;27.60;;;;;;6346899;22;19915;-92
2022/08/20 14:07:10;;;;;;;;;;;35.70;28.00;;;;;;6320071;22;19902;-91
2022/08/20 14:09:37;;;;;;;;;;;35.60;28.10;;;;;;6320335;22;19910;-92
2022/08/20 14:12:03;;;;;;;;;;;35.50;28.20;;;;;;6350326;22;19938;-91
2022/08/20 14:14:28;;;;;;;;;;;35.40;28.10;;;;;;6320478;22;20292;-92
2022/08/20 14:16:54;;;;;;;;;;;35.40;28.30;;;;;;6296639;22;19995;-92
2022/08/20 14:19:19;;;;;;;;;;;35.20;28.60;;;;;;6322573;22;19925;-92